sensor_id;sensor_type;location;lat;lon;timestamp;P1;durP1;ratioP1;P2;durP2;ratioP2
55148;SDS011;49539;48.160;11.530;2024-03-17T00:01:30;4.90;;;2.72;;
55148;SDS011;49539;48.160;11.530;2024-03-17T00:03:56;3.72;;;2.67;;
55148;SDS011;49539;48.160;11.530;2024-03-17T00:06:21;3.92;;;2.13;;
55148;SDS011;49539;48.160;11.530;2024-03-17T00:08:47;6.82;;;2.75;;
55148;SDS011;49539;48.160;11.530;2024-03-17T00:11:12;5.63;;;2.08;;
55148;SDS011;49539;48.160;11.530;2024-03-17T00:13:38;4.32;;;2.42;;
55148;SDS011;49539;48.160;11.530;2024-03-17T00:16:03;4.57;;;2.60;;
55148;SDS011;49539;48.160;11.530;2024-03-17T00:18:29;5.13;;;2.80;;
55148;SDS011;49539;48.160;11.530;2024-03-17T00:20:55;4.38;;;2.50;;
55148;SDS011;49539;48.160;11.530;2024-03-17T00:23:20;4.90;;;2.78;;
55148;SDS011;49539;48.160;11.530;2024-03-17T00:25:47;4.90;;;2.20;;
55148;SDS011;49539;48.160;11.530;2024-03-17T00:28:12;4.13;;;2.40;;
55148;SDS011;49539;48.160;11.530;2024-03-17T00:30:37;5.32;;;2.40;;
55148;SDS011;49539;48.160;11.530;2024-03-17T00:33:03;4.88;;;2.70;;
55148;SDS011;49539;48.160;11.530;2024-03-17T00:35:28;5.65;;;2.53;;
55148;SDS011;49539;48.160;11.530;2024-03-17T00:37:54;3.80;;;2.70;;
55148;SDS011;49539;48.160;11.530;2024-03-17T00:40:19;4.68;;;2.47;;
55148;SDS011;49539;48.160;11.530;2024-03-17T00:42:45;4.70;;;2.80;;
55148;SDS011;49539;48.160;11.530;2024-03-17T00:45:10;5.13;;;2.30;;
55148;SDS011;49539;48.160;11.530;2024-03-17T00:47:36;4.68;;;2.28;;
55148;SDS011;49539;48.160;11.530;2024-03-17T00:50:02;7.18;;;2.50;;
55148;SDS011;49539;48.160;11.530;2024-03-17T00:52:28;3.88;;;2.65;;
55148;SDS011;49539;48.160;11.530;2024-03-17T00:54:53;5.75;;;3.17;;
55148;SDS011;49539;48.160;11.530;2024-03-17T00:57:19;5.40;;;3.08;;
55148;SDS011;49539;48.160;11.530;2024-03-17T00:59:44;4.65;;;2.67;;
55148;SDS011;49539;48.160;11.530;2024-03-17T01:02:12;5.00;;;3.20;;
55148;SDS011;49539;48.160;11.530;2024-03-17T01:04:41;4.47;;;2.63;;
55148;SDS011;49539;48.160;11.530;2024-03-17T01:07:06;4.53;;;2.38;;
55148;SDS011;49539;48.160;11.530;2024-03-17T01:09:32;6.07;;;2.63;;
55148;SDS011;49539;48.160;11.530;2024-03-17T01:11:57;6.50;;;2.53;;
55148;SDS011;49539;48.160;11.530;2024-03-17T01:14:23;6.15;;;2.85;;
55148;SDS011;49539;48.160;11.530;2024-03-17T01:16:50;4.65;;;2.90;;
55148;SDS011;49539;48.160;11.530;2024-03-17T01:19:15;5.47;;;2.65;;
55148;SDS011;49539;48.160;11.530;2024-03-17T01:21:40;5.13;;;3.22;;
55148;SDS011;49539;48.160;11.530;2024-03-17T01:24:06;4.32;;;2.70;;
55148;SDS011;49539;48.160;11.530;2024-03-17T01:26:31;7.20;;;2.60;;
55148;SDS011;49539;48.160;11.530;2024-03-17T01:28:56;3.95;;;2.58;;
55148;SDS011;49539;48.160;11.530;2024-03-17T01:31:22;4.65;;;2.45;;
55148;SDS011;49539;48.160;11.530;2024-03-17T01:33:47;4.95;;;2.97;;
55148;SDS011;49539;48.160;11.530;2024-03-17T01:36:12;4.70;;;2.60;;
55148;SDS011;49539;48.160;11.530;2024-03-17T01:38:38;4.47;;;2.40;;
55148;SDS011;49539;48.160;11.530;2024-03-17T01:41:03;6.05;;;3.25;;
55148;SDS011;49539;48.160;11.530;2024-03-17T01:43:29;4.43;;;2.70;;
55148;SDS011;49539;48.160;11.530;2024-03-17T01:45:55;4.53;;;2.63;;
55148;SDS011;49539;48.160;11.530;2024-03-17T01:48:22;5.22;;;3.08;;
55148;SDS011;49539;48.160;11.530;2024-03-17T01:50:48;5.47;;;2.90;;
55148;SDS011;49539;48.160;11.530;2024-03-17T01:53:14;6.35;;;3.40;;
55148;SDS011;49539;48.160;11.530;2024-03-17T01:55:42;4.90;;;2.90;;
55148;SDS011;49539;48.160;11.530;2024-03-17T01:58:08;4.93;;;2.85;;
55148;SDS011;49539;48.160;11.530;2024-03-17T02:00:35;4.70;;;3.08;;
55148;SDS011;49539;48.160;11.530;2024-03-17T02:03:04;5.25;;;3.00;;
55148;SDS011;49539;48.160;11.530;2024-03-17T02:05:31;5.07;;;2.92;;
55148;SDS011;49539;48.160;11.530;2024-03-17T02:07:56;9.93;;;3.42;;
55148;SDS011;49539;48.160;11.530;2024-03-17T02:10:21;6.55;;;3.40;;
55148;SDS011;49539;48.160;11.530;2024-03-17T02:12:47;5.95;;;2.97;;
55148;SDS011;49539;48.160;11.530;2024-03-17T02:15:12;6.22;;;3.67;;
55148;SDS011;49539;48.160;11.530;2024-03-17T02:17:39;4.60;;;3.28;;
55148;SDS011;49539;48.160;11.530;2024-03-17T02:20:04;5.20;;;2.60;;
55148;SDS011;49539;48.160;11.530;2024-03-17T02:22:34;5.95;;;3.53;;
55148;SDS011;49539;48.160;11.530;2024-03-17T02:25:00;5.78;;;3.15;;
55148;SDS011;49539;48.160;11.530;2024-03-17T02:27:26;7.20;;;3.38;;
55148;SDS011;49539;48.160;11.530;2024-03-17T02:29:51;4.95;;;2.72;;
55148;SDS011;49539;48.160;11.530;2024-03-17T02:32:16;6.70;;;3.83;;
55148;SDS011;49539;48.160;11.530;2024-03-17T02:34:42;7.53;;;3.40;;
55148;SDS011;49539;48.160;11.530;2024-03-17T02:37:09;4.53;;;3.08;;
55148;SDS011;49539;48.160;11.530;2024-03-17T02:39:35;6.03;;;2.80;;
55148;SDS011;49539;48.160;11.530;2024-03-17T02:44:26;5.70;;;3.15;;
55148;SDS011;49539;48.160;11.530;2024-03-17T02:46:52;4.72;;;2.60;;
55148;SDS011;49539;48.160;11.530;2024-03-17T02:49:17;4.35;;;2.70;;
55148;SDS011;49539;48.160;11.530;2024-03-17T02:51:43;5.50;;;3.30;;
55148;SDS011;49539;48.160;11.530;2024-03-17T02:54:08;4.78;;;2.67;;
55148;SDS011;49539;48.160;11.530;2024-03-17T02:56:34;5.55;;;3.03;;
55148;SDS011;49539;48.160;11.530;2024-03-17T02:58:59;5.28;;;2.47;;
55148;SDS011;49539;48.160;11.530;2024-03-17T03:01:25;5.68;;;2.92;;
55148;SDS011;49539;48.160;11.530;2024-03-17T03:03:50;8.25;;;4.03;;
55148;SDS011;49539;48.160;11.530;2024-03-17T03:06:15;4.53;;;2.85;;
55148;SDS011;49539;48.160;11.530;2024-03-17T03:08:44;7.55;;;3.42;;
55148;SDS011;49539;48.160;11.530;2024-03-17T03:11:13;7.25;;;3.17;;
55148;SDS011;49539;48.160;11.530;2024-03-17T03:13:39;5.18;;;2.38;;
55148;SDS011;49539;48.160;11.530;2024-03-17T03:16:09;4.72;;;2.55;;
55148;SDS011;49539;48.160;11.530;2024-03-17T03:18:38;5.97;;;3.20;;
55148;SDS011;49539;48.160;11.530;2024-03-17T03:21:06;4.75;;;2.50;;
55148;SDS011;49539;48.160;11.530;2024-03-17T03:23:32;3.50;;;2.25;;
55148;SDS011;49539;48.160;11.530;2024-03-17T03:25:58;5.07;;;3.00;;
55148;SDS011;49539;48.160;11.530;2024-03-17T03:28:24;5.80;;;2.90;;
55148;SDS011;49539;48.160;11.530;2024-03-17T03:30:49;5.35;;;2.40;;
55148;SDS011;49539;48.160;11.530;2024-03-17T03:33:14;5.95;;;2.85;;
55148;SDS011;49539;48.160;11.530;2024-03-17T03:35:40;5.28;;;3.03;;
55148;SDS011;49539;48.160;11.530;2024-03-17T03:38:05;5.57;;;3.30;;
55148;SDS011;49539;48.160;11.530;2024-03-17T03:40:31;5.45;;;2.90;;
55148;SDS011;49539;48.160;11.530;2024-03-17T03:42:57;7.72;;;2.78;;
55148;SDS011;49539;48.160;11.530;2024-03-17T03:45:23;5.38;;;2.90;;
55148;SDS011;49539;48.160;11.530;2024-03-17T03:47:49;5.25;;;3.00;;
55148;SDS011;49539;48.160;11.530;2024-03-17T03:50:15;6.07;;;3.15;;
55148;SDS011;49539;48.160;11.530;2024-03-17T03:52:40;4.38;;;2.97;;
55148;SDS011;49539;48.160;11.530;2024-03-17T03:55:07;6.60;;;3.55;;
55148;SDS011;49539;48.160;11.530;2024-03-17T03:57:35;4.15;;;2.25;;
55148;SDS011;49539;48.160;11.530;2024-03-17T04:00:02;4.70;;;2.78;;
55148;SDS011;49539;48.160;11.530;2024-03-17T04:02:31;5.25;;;3.33;;
55148;SDS011;49539;48.160;11.530;2024-03-17T04:04:56;4.75;;;2.60;;
55148;SDS011;49539;48.160;11.530;2024-03-17T04:07:22;5.07;;;3.08;;
55148;SDS011;49539;48.160;11.530;2024-03-17T04:09:47;4.63;;;2.63;;
55148;SDS011;49539;48.160;11.530;2024-03-17T04:12:13;5.68;;;2.90;;
55148;SDS011;49539;48.160;11.530;2024-03-17T04:14:38;6.80;;;4.03;;
55148;SDS011;49539;48.160;11.530;2024-03-17T04:17:03;4.75;;;3.05;;
55148;SDS011;49539;48.160;11.530;2024-03-17T04:19:30;4.70;;;2.67;;
55148;SDS011;49539;48.160;11.530;2024-03-17T04:21:56;6.75;;;3.47;;
55148;SDS011;49539;48.160;11.530;2024-03-17T04:24:21;7.35;;;3.08;;
55148;SDS011;49539;48.160;11.530;2024-03-17T04:26:47;5.35;;;3.45;;
55148;SDS011;49539;48.160;11.530;2024-03-17T04:29:13;5.32;;;3.17;;
55148;SDS011;49539;48.160;11.530;2024-03-17T04:31:38;5.28;;;3.30;;
55148;SDS011;49539;48.160;11.530;2024-03-17T04:34:04;5.32;;;3.53;;
55148;SDS011;49539;48.160;11.530;2024-03-17T04:36:29;5.93;;;3.35;;
55148;SDS011;49539;48.160;11.530;2024-03-17T04:38:54;9.00;;;3.00;;
55148;SDS011;49539;48.160;11.530;2024-03-17T04:41:20;6.95;;;4.05;;
55148;SDS011;49539;48.160;11.530;2024-03-17T04:43:45;6.40;;;3.55;;
55148;SDS011;49539;48.160;11.530;2024-03-17T04:46:11;4.93;;;2.95;;
55148;SDS011;49539;48.160;11.530;2024-03-17T04:48:38;7.75;;;3.38;;
55148;SDS011;49539;48.160;11.530;2024-03-17T04:51:04;5.70;;;3.65;;
55148;SDS011;49539;48.160;11.530;2024-03-17T04:53:30;6.50;;;3.80;;
55148;SDS011;49539;48.160;11.530;2024-03-17T04:55:59;6.30;;;3.55;;
55148;SDS011;49539;48.160;11.530;2024-03-17T04:58:24;5.90;;;3.28;;
55148;SDS011;49539;48.160;11.530;2024-03-17T05:00:50;5.28;;;3.03;;
55148;SDS011;49539;48.160;11.530;2024-03-17T05:03:15;7.20;;;3.50;;
55148;SDS011;49539;48.160;11.530;2024-03-17T05:05:41;6.68;;;3.72;;
55148;SDS011;49539;48.160;11.530;2024-03-17T05:08:06;6.90;;;3.45;;
55148;SDS011;49539;48.160;11.530;2024-03-17T05:10:31;5.72;;;3.50;;
55148;SDS011;49539;48.160;11.530;2024-03-17T05:12:57;6.28;;;3.00;;
55148;SDS011;49539;48.160;11.530;2024-03-17T05:15:22;9.02;;;3.60;;
55148;SDS011;49539;48.160;11.530;2024-03-17T05:17:47;6.80;;;3.85;;
55148;SDS011;49539;48.160;11.530;2024-03-17T05:20:13;5.07;;;2.70;;
55148;SDS011;49539;48.160;11.530;2024-03-17T05:22:38;6.38;;;3.63;;
55148;SDS011;49539;48.160;11.530;2024-03-17T05:25:04;7.25;;;4.20;;
55148;SDS011;49539;48.160;11.530;2024-03-17T05:27:29;9.43;;;4.65;;
55148;SDS011;49539;48.160;11.530;2024-03-17T05:29:55;9.80;;;4.68;;
55148;SDS011;49539;48.160;11.530;2024-03-17T05:32:21;4.80;;;3.28;;
55148;SDS011;49539;48.160;11.530;2024-03-17T05:34:46;7.72;;;3.95;;
55148;SDS011;49539;48.160;11.530;2024-03-17T05:37:12;7.35;;;4.20;;
55148;SDS011;49539;48.160;11.530;2024-03-17T05:39:37;8.40;;;3.75;;
55148;SDS011;49539;48.160;11.530;2024-03-17T05:42:02;7.63;;;3.92;;
55148;SDS011;49539;48.160;11.530;2024-03-17T05:44:29;6.28;;;3.67;;
55148;SDS011;49539;48.160;11.530;2024-03-17T05:46:54;7.70;;;4.88;;
55148;SDS011;49539;48.160;11.530;2024-03-17T05:49:23;9.73;;;3.90;;
55148;SDS011;49539;48.160;11.530;2024-03-17T05:51:48;8.60;;;4.28;;
55148;SDS011;49539;48.160;11.530;2024-03-17T05:54:13;5.63;;;3.65;;
55148;SDS011;49539;48.160;11.530;2024-03-17T05:56:39;10.30;;;4.85;;
55148;SDS011;49539;48.160;11.530;2024-03-17T05:59:05;9.85;;;4.65;;
55148;SDS011;49539;48.160;11.530;2024-03-17T06:01:30;7.68;;;4.18;;
55148;SDS011;49539;48.160;11.530;2024-03-17T06:03:55;10.02;;;4.43;;
55148;SDS011;49539;48.160;11.530;2024-03-17T06:06:21;7.82;;;4.70;;
55148;SDS011;49539;48.160;11.530;2024-03-17T06:08:47;7.78;;;4.25;;
55148;SDS011;49539;48.160;11.530;2024-03-17T06:11:14;8.80;;;3.60;;
55148;SDS011;49539;48.160;11.530;2024-03-17T06:13:39;7.03;;;3.30;;
55148;SDS011;49539;48.160;11.530;2024-03-17T06:16:05;6.80;;;4.20;;
55148;SDS011;49539;48.160;11.530;2024-03-17T06:18:31;11.88;;;4.10;;
55148;SDS011;49539;48.160;11.530;2024-03-17T06:20:56;9.80;;;4.30;;
55148;SDS011;49539;48.160;11.530;2024-03-17T06:23:25;9.48;;;4.22;;
55148;SDS011;49539;48.160;11.530;2024-03-17T06:25:53;6.45;;;3.53;;
55148;SDS011;49539;48.160;11.530;2024-03-17T06:28:21;7.03;;;3.85;;
55148;SDS011;49539;48.160;11.530;2024-03-17T06:30:57;7.57;;;4.00;;
55148;SDS011;49539;48.160;11.530;2024-03-17T06:33:26;8.98;;;4.30;;
55148;SDS011;49539;48.160;11.530;2024-03-17T06:35:53;7.70;;;4.18;;
55148;SDS011;49539;48.160;11.530;2024-03-17T06:38:18;6.38;;;3.33;;
55148;SDS011;49539;48.160;11.530;2024-03-17T06:40:50;6.43;;;3.67;;
55148;SDS011;49539;48.160;11.530;2024-03-17T06:43:16;6.47;;;3.58;;
55148;SDS011;49539;48.160;11.530;2024-03-17T06:45:41;5.80;;;3.50;;
55148;SDS011;49539;48.160;11.530;2024-03-17T06:48:07;6.68;;;3.70;;
55148;SDS011;49539;48.160;11.530;2024-03-17T06:50:32;5.32;;;2.85;;
55148;SDS011;49539;48.160;11.530;2024-03-17T06:52:57;5.25;;;2.92;;
55148;SDS011;49539;48.160;11.530;2024-03-17T06:55:23;5.80;;;3.38;;
55148;SDS011;49539;48.160;11.530;2024-03-17T06:57:49;4.93;;;2.85;;
55148;SDS011;49539;48.160;11.530;2024-03-17T07:00:15;6.03;;;2.92;;
55148;SDS011;49539;48.160;11.530;2024-03-17T07:02:41;5.32;;;2.40;;
55148;SDS011;49539;48.160;11.530;2024-03-17T07:05:11;4.30;;;2.15;;
55148;SDS011;49539;48.160;11.530;2024-03-17T07:07:39;3.40;;;2.15;;
55148;SDS011;49539;48.160;11.530;2024-03-17T07:10:05;4.85;;;2.40;;
55148;SDS011;49539;48.160;11.530;2024-03-17T07:12:30;5.55;;;2.80;;
55148;SDS011;49539;48.160;11.530;2024-03-17T07:14:56;3.72;;;2.63;;
55148;SDS011;49539;48.160;11.530;2024-03-17T07:17:21;4.50;;;2.33;;
55148;SDS011;49539;48.160;11.530;2024-03-17T07:19:47;4.25;;;2.50;;
55148;SDS011;49539;48.160;11.530;2024-03-17T07:22:14;5.85;;;2.53;;
55148;SDS011;49539;48.160;11.530;2024-03-17T07:24:39;4.82;;;2.42;;
55148;SDS011;49539;48.160;11.530;2024-03-17T07:27:05;4.13;;;2.38;;
55148;SDS011;49539;48.160;11.530;2024-03-17T07:29:34;4.50;;;2.25;;
55148;SDS011;49539;48.160;11.530;2024-03-17T07:31:59;4.78;;;2.47;;
55148;SDS011;49539;48.160;11.530;2024-03-17T07:34:24;8.10;;;2.60;;
55148;SDS011;49539;48.160;11.530;2024-03-17T07:36:49;6.50;;;3.17;;
55148;SDS011;49539;48.160;11.530;2024-03-17T07:39:15;5.07;;;2.38;;
55148;SDS011;49539;48.160;11.530;2024-03-17T07:41:41;5.00;;;2.00;;
55148;SDS011;49539;48.160;11.530;2024-03-17T07:44:06;6.57;;;3.00;;
55148;SDS011;49539;48.160;11.530;2024-03-17T07:46:32;6.72;;;2.40;;
55148;SDS011;49539;48.160;11.530;2024-03-17T07:48:58;3.92;;;2.30;;
55148;SDS011;49539;48.160;11.530;2024-03-17T07:51:23;4.55;;;2.20;;
55148;SDS011;49539;48.160;11.530;2024-03-17T07:53:49;5.00;;;2.55;;
55148;SDS011;49539;48.160;11.530;2024-03-17T07:56:15;6.93;;;2.78;;
55148;SDS011;49539;48.160;11.530;2024-03-17T07:58:41;7.45;;;2.95;;
55148;SDS011;49539;48.160;11.530;2024-03-17T08:01:14;4.47;;;2.20;;
55148;SDS011;49539;48.160;11.530;2024-03-17T08:03:41;4.90;;;2.38;;
55148;SDS011;49539;48.160;11.530;2024-03-17T08:06:07;3.28;;;2.22;;
55148;SDS011;49539;48.160;11.530;2024-03-17T08:08:34;3.45;;;2.03;;
55148;SDS011;49539;48.160;11.530;2024-03-17T08:10:59;6.70;;;2.30;;
55148;SDS011;49539;48.160;11.530;2024-03-17T08:13:28;3.95;;;2.50;;
55148;SDS011;49539;48.160;11.530;2024-03-17T08:15:57;3.97;;;2.00;;
55148;SDS011;49539;48.160;11.530;2024-03-17T08:18:23;5.28;;;2.42;;
55148;SDS011;49539;48.160;11.530;2024-03-17T08:20:48;5.47;;;1.92;;
55148;SDS011;49539;48.160;11.530;2024-03-17T08:23:14;4.57;;;2.17;;
55148;SDS011;49539;48.160;11.530;2024-03-17T08:25:39;5.85;;;2.13;;
55148;SDS011;49539;48.160;11.530;2024-03-17T08:28:05;8.50;;;2.85;;
55148;SDS011;49539;48.160;11.530;2024-03-17T08:30:31;5.13;;;2.28;;
55148;SDS011;49539;48.160;11.530;2024-03-17T08:32:56;4.80;;;2.58;;
55148;SDS011;49539;48.160;11.530;2024-03-17T08:35:22;4.57;;;2.40;;
55148;SDS011;49539;48.160;11.530;2024-03-17T08:37:47;6.18;;;2.38;;
55148;SDS011;49539;48.160;11.530;2024-03-17T08:40:13;3.70;;;2.17;;
55148;SDS011;49539;48.160;11.530;2024-03-17T08:42:39;4.30;;;2.00;;
55148;SDS011;49539;48.160;11.530;2024-03-17T08:45:04;4.50;;;2.00;;
55148;SDS011;49539;48.160;11.530;2024-03-17T08:47:29;5.07;;;2.30;;
55148;SDS011;49539;48.160;11.530;2024-03-17T08:49:55;3.72;;;1.77;;
55148;SDS011;49539;48.160;11.530;2024-03-17T08:52:20;3.83;;;1.77;;
55148;SDS011;49539;48.160;11.530;2024-03-17T08:54:49;2.63;;;1.67;;
55148;SDS011;49539;48.160;11.530;2024-03-17T08:57:16;4.13;;;2.22;;
55148;SDS011;49539;48.160;11.530;2024-03-17T08:59:42;3.45;;;2.03;;
55148;SDS011;49539;48.160;11.530;2024-03-17T09:02:09;2.90;;;1.98;;
55148;SDS011;49539;48.160;11.530;2024-03-17T09:04:36;3.47;;;2.00;;
55148;SDS011;49539;48.160;11.530;2024-03-17T09:07:02;4.22;;;2.13;;
55148;SDS011;49539;48.160;11.530;2024-03-17T09:09:29;5.28;;;2.10;;
55148;SDS011;49539;48.160;11.530;2024-03-17T09:11:54;3.65;;;1.90;;
55148;SDS011;49539;48.160;11.530;2024-03-17T09:14:19;5.75;;;2.38;;
55148;SDS011;49539;48.160;11.530;2024-03-17T09:16:47;7.57;;;1.98;;
55148;SDS011;49539;48.160;11.530;2024-03-17T09:19:12;5.68;;;1.92;;
55148;SDS011;49539;48.160;11.530;2024-03-17T09:21:37;3.85;;;2.03;;
55148;SDS011;49539;48.160;11.530;2024-03-17T09:24:05;3.58;;;1.67;;
55148;SDS011;49539;48.160;11.530;2024-03-17T09:26:30;3.55;;;2.00;;
55148;SDS011;49539;48.160;11.530;2024-03-17T09:28:56;2.85;;;1.60;;
55148;SDS011;49539;48.160;11.530;2024-03-17T09:31:21;3.40;;;1.58;;
55148;SDS011;49539;48.160;11.530;2024-03-17T09:33:46;2.15;;;1.30;;
55148;SDS011;49539;48.160;11.530;2024-03-17T09:36:11;4.32;;;1.83;;
55148;SDS011;49539;48.160;11.530;2024-03-17T09:38:38;2.30;;;1.20;;
55148;SDS011;49539;48.160;11.530;2024-03-17T09:41:03;3.83;;;1.67;;
55148;SDS011;49539;48.160;11.530;2024-03-17T09:43:29;2.70;;;1.52;;
55148;SDS011;49539;48.160;11.530;2024-03-17T09:45:56;3.13;;;1.10;;
55148;SDS011;49539;48.160;11.530;2024-03-17T09:48:26;3.00;;;1.40;;
55148;SDS011;49539;48.160;11.530;2024-03-17T09:50:53;2.47;;;1.30;;
55148;SDS011;49539;48.160;11.530;2024-03-17T09:53:22;5.03;;;1.40;;
55148;SDS011;49539;48.160;11.530;2024-03-17T09:55:47;2.47;;;1.23;;
55148;SDS011;49539;48.160;11.530;2024-03-17T09:58:15;8.07;;;1.48;;
55148;SDS011;49539;48.160;11.530;2024-03-17T10:00:40;2.67;;;1.35;;
55148;SDS011;49539;48.160;11.530;2024-03-17T10:03:06;3.35;;;1.40;;
55148;SDS011;49539;48.160;11.530;2024-03-17T10:05:31;2.58;;;1.42;;
55148;SDS011;49539;48.160;11.530;2024-03-17T10:07:57;2.15;;;1.10;;
55148;SDS011;49539;48.160;11.530;2024-03-17T10:10:23;1.90;;;1.20;;
55148;SDS011;49539;48.160;11.530;2024-03-17T10:12:49;4.70;;;1.40;;
55148;SDS011;49539;48.160;11.530;2024-03-17T10:15:16;6.28;;;1.10;;
55148;SDS011;49539;48.160;11.530;2024-03-17T10:17:41;2.35;;;0.95;;
55148;SDS011;49539;48.160;11.530;2024-03-17T10:20:13;2.35;;;1.10;;
55148;SDS011;49539;48.160;11.530;2024-03-17T10:23:02;5.07;;;1.30;;
55148;SDS011;49539;48.160;11.530;2024-03-17T10:25:26;3.03;;;1.45;;
55148;SDS011;49539;48.160;11.530;2024-03-17T10:27:53;2.35;;;1.10;;
55148;SDS011;49539;48.160;11.530;2024-03-17T10:30:18;2.22;;;1.05;;
55148;SDS011;49539;48.160;11.530;2024-03-17T10:32:45;2.65;;;1.10;;
55148;SDS011;49539;48.160;11.530;2024-03-17T10:35:24;1.58;;;0.82;;
55148;SDS011;49539;48.160;11.530;2024-03-17T10:37:54;2.97;;;1.42;;
55148;SDS011;49539;48.160;11.530;2024-03-17T10:40:19;2.92;;;0.80;;
55148;SDS011;49539;48.160;11.530;2024-03-17T10:42:45;1.60;;;0.80;;
55148;SDS011;49539;48.160;11.530;2024-03-17T10:45:13;4.10;;;1.10;;
55148;SDS011;49539;48.160;11.530;2024-03-17T10:47:38;2.25;;;0.82;;
55148;SDS011;49539;48.160;11.530;2024-03-17T10:50:07;1.98;;;0.93;;
55148;SDS011;49539;48.160;11.530;2024-03-17T10:52:37;3.45;;;0.95;;
55148;SDS011;49539;48.160;11.530;2024-03-17T10:55:07;3.28;;;1.13;;
55148;SDS011;49539;48.160;11.530;2024-03-17T10:59:59;3.80;;;1.10;;
55148;SDS011;49539;48.160;11.530;2024-03-17T11:02:26;1.48;;;0.88;;
55148;SDS011;49539;48.160;11.530;2024-03-17T11:05:01;2.95;;;0.90;;
55148;SDS011;49539;48.160;11.530;2024-03-17T11:07:27;1.75;;;0.85;;
55148;SDS011;49539;48.160;11.530;2024-03-17T11:09:53;3.58;;;1.35;;
55148;SDS011;49539;48.160;11.530;2024-03-17T11:17:47;2.88;;;1.42;;
55148;SDS011;49539;48.160;11.530;2024-03-17T11:22:44;3.25;;;0.93;;
55148;SDS011;49539;48.160;11.530;2024-03-17T11:27:50;4.05;;;0.80;;
55148;SDS011;49539;48.160;11.530;2024-03-17T11:33:00;1.30;;;0.88;;
55148;SDS011;49539;48.160;11.530;2024-03-17T11:35:25;1.30;;;0.73;;
55148;SDS011;49539;48.160;11.530;2024-03-17T11:37:50;2.30;;;1.13;;
55148;SDS011;49539;48.160;11.530;2024-03-17T11:40:24;1.70;;;0.98;;
55148;SDS011;49539;48.160;11.530;2024-03-17T11:43:02;3.58;;;0.73;;
55148;SDS011;49539;48.160;11.530;2024-03-17T11:45:30;4.70;;;1.27;;
55148;SDS011;49539;48.160;11.530;2024-03-17T11:47:55;3.88;;;1.00;;
55148;SDS011;49539;48.160;11.530;2024-03-17T11:50:20;1.67;;;0.70;;
55148;SDS011;49539;48.160;11.530;2024-03-17T11:52:46;7.50;;;1.02;;
55148;SDS011;49539;48.160;11.530;2024-03-17T11:55:16;3.75;;;1.02;;
55148;SDS011;49539;48.160;11.530;2024-03-17T11:57:42;5.85;;;1.10;;
55148;SDS011;49539;48.160;11.530;2024-03-17T12:00:20;2.88;;;0.90;;
55148;SDS011;49539;48.160;11.530;2024-03-17T12:02:48;3.50;;;0.77;;
55148;SDS011;49539;48.160;11.530;2024-03-17T12:05:13;6.03;;;1.10;;
55148;SDS011;49539;48.160;11.530;2024-03-17T12:07:42;1.67;;;0.88;;
55148;SDS011;49539;48.160;11.530;2024-03-17T12:10:08;1.83;;;0.75;;
55148;SDS011;49539;48.160;11.530;2024-03-17T12:12:36;7.38;;;0.90;;
55148;SDS011;49539;48.160;11.530;2024-03-17T12:15:02;1.65;;;0.82;;
55148;SDS011;49539;48.160;11.530;2024-03-17T12:17:28;3.47;;;0.93;;
55148;SDS011;49539;48.160;11.530;2024-03-17T12:19:53;2.33;;;0.90;;
55148;SDS011;49539;48.160;11.530;2024-03-17T12:22:21;2.28;;;1.20;;
55148;SDS011;49539;48.160;11.530;2024-03-17T12:24:56;4.30;;;1.20;;
55148;SDS011;49539;48.160;11.530;2024-03-17T12:27:24;1.90;;;0.95;;
55148;SDS011;49539;48.160;11.530;2024-03-17T12:29:50;3.75;;;1.40;;
55148;SDS011;49539;48.160;11.530;2024-03-17T12:32:17;2.10;;;1.17;;
55148;SDS011;49539;48.160;11.530;2024-03-17T12:34:46;0.73;;;0.68;;
55148;SDS011;49539;48.160;11.530;2024-03-17T12:37:18;1.70;;;0.75;;
55148;SDS011;49539;48.160;11.530;2024-03-17T12:39:43;3.53;;;1.85;;
55148;SDS011;49539;48.160;11.530;2024-03-17T12:42:12;4.03;;;1.25;;
55148;SDS011;49539;48.160;11.530;2024-03-17T12:47:16;2.08;;;1.10;;
55148;SDS011;49539;48.160;11.530;2024-03-17T12:49:49;1.70;;;1.00;;
55148;SDS011;49539;48.160;11.530;2024-03-17T12:54:41;2.87;;;1.30;;
55148;SDS011;49539;48.160;11.530;2024-03-17T12:57:12;1.52;;;0.70;;
55148;SDS011;49539;48.160;11.530;2024-03-17T12:59:56;2.58;;;0.88;;
55148;SDS011;49539;48.160;11.530;2024-03-17T13:02:45;1.42;;;0.85;;
55148;SDS011;49539;48.160;11.530;2024-03-17T13:07:36;2.63;;;0.77;;
55148;SDS011;49539;48.160;11.530;2024-03-17T13:10:02;2.35;;;1.17;;
55148;SDS011;49539;48.160;11.530;2024-03-17T13:12:28;2.72;;;1.00;;
55148;SDS011;49539;48.160;11.530;2024-03-17T13:14:53;1.80;;;0.82;;
55148;SDS011;49539;48.160;11.530;2024-03-17T13:17:19;3.13;;;1.08;;
55148;SDS011;49539;48.160;11.530;2024-03-17T13:19:47;2.90;;;1.30;;
55148;SDS011;49539;48.160;11.530;2024-03-17T13:22:13;2.67;;;1.10;;
55148;SDS011;49539;48.160;11.530;2024-03-17T13:24:38;1.83;;;0.88;;
55148;SDS011;49539;48.160;11.530;2024-03-17T13:27:04;1.52;;;0.80;;
55148;SDS011;49539;48.160;11.530;2024-03-17T13:29:31;4.75;;;1.23;;
55148;SDS011;49539;48.160;11.530;2024-03-17T13:31:58;2.30;;;1.10;;
55148;SDS011;49539;48.160;11.530;2024-03-17T13:34:24;4.18;;;1.23;;
55148;SDS011;49539;48.160;11.530;2024-03-17T13:36:52;2.70;;;0.90;;
55148;SDS011;49539;48.160;11.530;2024-03-17T13:39:18;1.85;;;0.80;;
55148;SDS011;49539;48.160;11.530;2024-03-17T13:41:45;3.60;;;1.00;;
55148;SDS011;49539;48.160;11.530;2024-03-17T13:44:12;3.28;;;1.23;;
55148;SDS011;49539;48.160;11.530;2024-03-17T13:46:37;3.15;;;1.00;;
55148;SDS011;49539;48.160;11.530;2024-03-17T13:49:07;4.57;;;1.05;;
55148;SDS011;49539;48.160;11.530;2024-03-17T13:51:32;3.05;;;0.90;;
55148;SDS011;49539;48.160;11.530;2024-03-17T13:53:57;3.58;;;0.80;;
55148;SDS011;49539;48.160;11.530;2024-03-17T13:56:23;5.22;;;1.17;;
55148;SDS011;49539;48.160;11.530;2024-03-17T13:58:51;3.90;;;1.02;;
55148;SDS011;49539;48.160;11.530;2024-03-17T14:01:16;2.30;;;1.15;;
55148;SDS011;49539;48.160;11.530;2024-03-17T14:03:41;2.63;;;1.02;;
55148;SDS011;49539;48.160;11.530;2024-03-17T14:06:08;3.58;;;0.82;;
55148;SDS011;49539;48.160;11.530;2024-03-17T14:08:34;1.58;;;0.80;;
55148;SDS011;49539;48.160;11.530;2024-03-17T14:11:00;4.20;;;0.90;;
55148;SDS011;49539;48.160;11.530;2024-03-17T14:13:26;3.22;;;0.85;;
55148;SDS011;49539;48.160;11.530;2024-03-17T14:15:51;1.33;;;0.60;;
55148;SDS011;49539;48.160;11.530;2024-03-17T14:18:16;2.05;;;1.33;;
55148;SDS011;49539;48.160;11.530;2024-03-17T14:20:41;2.42;;;0.73;;
55148;SDS011;49539;48.160;11.530;2024-03-17T14:23:07;1.63;;;0.98;;
55148;SDS011;49539;48.160;11.530;2024-03-17T14:25:32;1.95;;;0.95;;
55148;SDS011;49539;48.160;11.530;2024-03-17T14:27:57;2.13;;;1.00;;
55148;SDS011;49539;48.160;11.530;2024-03-17T14:30:23;3.22;;;1.05;;
55148;SDS011;49539;48.160;11.530;2024-03-17T14:32:48;6.05;;;1.67;;
55148;SDS011;49539;48.160;11.530;2024-03-17T14:35:15;4.10;;;0.88;;
55148;SDS011;49539;48.160;11.530;2024-03-17T14:37:41;3.35;;;1.30;;
55148;SDS011;49539;48.160;11.530;2024-03-17T14:40:08;2.38;;;1.08;;
55148;SDS011;49539;48.160;11.530;2024-03-17T14:42:39;2.10;;;1.00;;
55148;SDS011;49539;48.160;11.530;2024-03-17T14:45:06;3.90;;;1.00;;
55148;SDS011;49539;48.160;11.530;2024-03-17T14:47:32;4.55;;;1.30;;
55148;SDS011;49539;48.160;11.530;2024-03-17T14:49:57;5.22;;;1.13;;
55148;SDS011;49539;48.160;11.530;2024-03-17T14:52:22;2.78;;;1.10;;
55148;SDS011;49539;48.160;11.530;2024-03-17T14:54:49;5.20;;;1.30;;